Time;durP1;ratioP1;P1;durP2;ratioP2;P2;SDS_P1;SDS_P2;PMS_P1;PMS_P2;Temp;Humidity;BMP_temperature;BMP_pressure;BME280_temperature;BME280_humidity;BME280_pressure;Samples;Min_cycle;Max_cycle;Signal;HPM_P1;HPM_P2
2021/03/23 00:00:39;;;;;;;18.67;16.45;;;22.40;41.80;;;;;;4901982;29;20482;-69
2021/03/23 00:03:15;;;;;;;18.17;15.77;;;22.40;41.80;;;;;;4917607;29;20426;-69
2021/03/23 00:05:42;;;;;;;19.42;15.40;;;22.50;41.80;;;;;;4938658;29;20527;-70
2021/03/23 00:08:23;;;;;;;19.20;15.98;;;22.40;41.70;;;;;;4928912;29;20036;-69
2021/03/23 00:10:49;;;;;;;16.42;14.65;;;22.40;41.70;;;;;;4902470;29;20087;-70
2021/03/23 00:13:15;;;;;;;16.50;14.80;;;22.40;41.60;;;;;;4919849;29;20043;-69
2021/03/23 00:15:45;;;;;;;14.75;13.25;;;22.40;41.60;;;;;;4919599;29;20059;-69
2021/03/23 00:18:12;;;;;;;17.80;14.68;;;22.40;41.70;;;;;;4918480;29;20036;-69
2021/03/23 00:20:38;;;;;;;15.95;12.73;;;22.40;41.60;;;;;;4901858;29;20017;-69
2021/03/23 00:23:05;;;;;;;14.93;13.20;;;22.40;41.60;;;;;;4918733;29;20032;-69
2021/03/23 00:25:31;;;;;;;14.35;12.40;;;22.40;41.70;;;;;;4902207;29;20032;-69
2021/03/23 00:27:57;;;;;;;15.65;12.73;;;22.40;41.60;;;;;;4917486;29;20036;-69
2021/03/23 00:30:23;;;;;;;14.45;12.65;;;22.30;41.60;;;;;;4919060;29;20035;-69
2021/03/23 00:32:50;;;;;;;14.02;12.38;;;22.30;41.70;;;;;;4923599;29;20827;-69
2021/03/23 00:35:17;;;;;;;15.32;12.10;;;22.30;41.60;;;;;;4938217;29;20043;-69
2021/03/23 00:37:43;;;;;;;14.15;12.07;;;22.30;41.60;;;;;;4938349;29;20040;-69
2021/03/23 00:40:14;;;;;;;11.63;10.43;;;22.30;41.60;;;;;;4920415;29;20073;-69
2021/03/23 00:42:40;;;;;;;14.48;11.05;;;22.30;41.70;;;;;;4901862;29;20039;-69
2021/03/23 00:45:09;;;;;;;12.88;11.23;;;22.30;41.60;;;;;;4886246;29;20032;-69
2021/03/23 00:47:35;;;;;;;11.70;10.45;;;22.30;41.60;;;;;;4902425;29;20028;-69
2021/03/23 00:50:01;;;;;;;11.18;10.02;;;22.30;41.60;;;;;;4919192;29;20039;-69
2021/03/23 00:52:28;;;;;;;12.25;10.77;;;22.30;41.60;;;;;;4902082;29;20032;-69
2021/03/23 00:54:54;;;;;;;11.52;9.98;;;22.30;41.60;;;;;;4901735;29;20114;-69
2021/03/23 00:57:20;;;;;;;10.95;9.45;;;22.20;41.50;;;;;;4918703;29;20067;-69
2021/03/23 00:59:46;;;;;;;13.50;10.40;;;22.30;41.60;;;;;;4901902;29;20422;-69
2021/03/23 01:02:12;;;;;;;10.50;9.40;;;22.20;41.60;;;;;;4885726;29;20039;-69
2021/03/23 01:04:38;;;;;;;13.63;10.02;;;22.20;41.50;;;;;;4900883;29;20454;-70
2021/03/23 01:07:04;;;;;;;12.10;9.45;;;22.30;41.60;;;;;;4937958;29;20035;-69
2021/03/23 01:09:30;;;;;;;13.10;9.73;;;22.20;41.50;;;;;;4932375;29;20111;-69
2021/03/23 01:11:56;;;;;;;12.45;8.90;;;22.20;41.50;;;;;;4902026;29;20048;-69
2021/03/23 01:14:22;;;;;;;10.57;8.90;;;22.20;41.50;;;;;;4918276;29;20055;-70
2021/03/23 01:16:48;;;;;;;11.32;8.52;;;22.20;41.50;;;;;;4928476;29;20118;-69
2021/03/23 01:19:14;;;;;;;12.75;8.45;;;22.20;41.50;;;;;;4902010;29;20513;-69
2021/03/23 01:21:40;;;;;;;9.27;8.13;;;22.20;41.50;;;;;;4918692;29;20099;-69
2021/03/23 01:24:07;;;;;;;11.38;8.52;;;22.20;41.50;;;;;;4901123;29;20046;-69
2021/03/23 01:26:33;;;;;;;11.70;8.35;;;22.20;41.50;;;;;;4901161;29;20111;-70
2021/03/23 01:28:59;;;;;;;11.93;8.05;;;22.20;41.50;;;;;;4918521;29;20038;-69
2021/03/23 01:31:25;;;;;;;10.55;8.05;;;22.10;41.40;;;;;;4918194;29;20382;-69
2021/03/23 01:33:51;;;;;;;10.35;8.32;;;22.10;41.50;;;;;;4926854;29;20027;-69
2021/03/23 01:36:17;;;;;;;9.75;8.20;;;22.10;41.40;;;;;;4937163;29;20032;-70
2021/03/23 01:38:43;;;;;;;9.50;8.25;;;22.10;41.40;;;;;;4907486;29;20111;-69
2021/03/23 01:41:10;;;;;;;8.57;7.28;;;22.10;41.40;;;;;;4885599;29;20451;-70
2021/03/23 01:43:37;;;;;;;11.73;8.25;;;22.10;41.40;;;;;;4917845;29;20043;-70
2021/03/23 01:46:40;;;;;;;10.15;8.80;;;22.10;41.40;;;;;;4918627;29;20437;-70
2021/03/23 01:49:15;;;;;;;9.52;7.90;;;22.10;41.40;;;;;;4900931;29;20486;-70
2021/03/23 01:51:44;;;;;;;11.38;8.10;;;22.10;41.40;;;;;;4901115;29;20501;-69
2021/03/23 01:54:24;;;;;;;10.35;8.10;;;22.10;41.40;;;;;;4917704;29;20035;-69
2021/03/23 01:56:52;;;;;;;8.43;7.57;;;22.00;41.30;;;;;;4917326;29;20082;-70
2021/03/23 01:59:19;;;;;;;10.00;8.07;;;22.10;41.30;;;;;;4899528;29;20039;-69
2021/03/23 02:01:46;;;;;;;10.07;7.35;;;22.10;41.30;;;;;;4900131;29;20045;-69
2021/03/23 02:04:12;;;;;;;8.93;7.50;;;22.00;41.20;;;;;;4916624;29;20034;-69
2021/03/23 02:06:43;;;;;;;11.15;7.47;;;22.00;41.20;;;;;;4923068;29;20032;-69
2021/03/23 02:09:23;;;;;;;9.60;7.57;;;22.00;41.20;;;;;;4884665;29;20115;-70
2021/03/23 02:12:05;;;;;;;9.70;7.55;;;22.00;41.20;;;;;;4916856;29;20048;-70
2021/03/23 02:14:38;;;;;;;9.20;7.63;;;22.00;41.20;;;;;;4915732;29;20058;-70
2021/03/23 02:17:18;;;;;;;8.55;7.25;;;22.00;41.10;;;;;;4915773;29;20368;-69
2021/03/23 02:19:45;;;;;;;11.38;7.30;;;22.00;41.10;;;;;;4916154;29;20030;-70
2021/03/23 02:22:24;;;;;;;8.55;7.63;;;22.00;41.10;;;;;;4916375;29;20070;-70
2021/03/23 02:24:50;;;;;;;10.32;7.63;;;22.00;41.10;;;;;;4898065;29;20164;-69
2021/03/23 02:27:17;;;;;;;8.02;6.90;;;21.90;41.00;;;;;;4900098;29;20036;-70
2021/03/23 02:29:44;;;;;;;11.25;6.97;;;21.90;41.00;;;;;;4905693;29;20751;-70
2021/03/23 02:32:10;;;;;;;9.60;6.65;;;21.90;41.00;;;;;;4905052;29;20059;-70
2021/03/23 02:34:37;;;;;;;8.50;6.72;;;21.90;41.00;;;;;;4899762;29;20119;-70
2021/03/23 02:37:03;;;;;;;6.93;6.22;;;21.90;41.00;;;;;;4900187;29;20092;-70
2021/03/23 02:39:33;;;;;;;8.10;7.18;;;21.90;41.00;;;;;;4916615;29;20048;-70
2021/03/23 02:41:59;;;;;;;7.65;6.90;;;21.90;41.00;;;;;;4916769;29;20043;-70
2021/03/23 02:44:27;;;;;;;8.70;7.28;;;21.90;40.90;;;;;;4898802;29;20035;-69
2021/03/23 02:46:54;;;;;;;7.93;6.03;;;21.90;40.90;;;;;;4883011;29;20639;-70
2021/03/23 02:49:20;;;;;;;8.60;6.55;;;21.90;40.90;;;;;;4907895;29;20040;-70
2021/03/23 02:51:50;;;;;;;9.35;7.07;;;21.90;40.90;;;;;;4899572;29;20067;-69
2021/03/23 02:54:16;;;;;;;9.65;7.20;;;21.80;40.90;;;;;;4915427;29;20051;-69
2021/03/23 02:56:42;;;;;;;8.68;6.90;;;21.90;40.90;;;;;;4899036;29;20032;-70
2021/03/23 02:59:08;;;;;;;6.97;6.18;;;21.90;40.90;;;;;;4899595;29;20127;-70
2021/03/23 03:01:34;;;;;;;7.90;6.20;;;21.80;40.80;;;;;;4883668;29;20032;-70
2021/03/23 03:04:02;;;;;;;6.97;5.97;;;21.80;40.80;;;;;;4913456;29;20036;-70
2021/03/23 03:06:28;;;;;;;9.20;6.45;;;21.80;40.80;;;;;;4917923;29;20470;-70
2021/03/23 03:08:54;;;;;;;7.40;6.60;;;21.80;40.80;;;;;;4910239;29;20468;-69
2021/03/23 03:11:20;;;;;;;9.07;6.18;;;21.80;40.80;;;;;;4899472;29;20103;-69
2021/03/23 03:13:46;;;;;;;8.82;6.47;;;21.80;40.80;;;;;;4899532;29;20095;-70
2021/03/23 03:16:12;;;;;;;9.00;6.60;;;21.80;40.80;;;;;;4916399;29;20075;-69
2021/03/23 03:18:38;;;;;;;7.10;5.75;;;21.80;40.70;;;;;;4899167;29;20024;-70
2021/03/23 03:21:04;;;;;;;9.20;6.53;;;21.80;40.70;;;;;;4883624;29;20364;-69
2021/03/23 03:23:30;;;;;;;7.95;6.05;;;21.80;40.70;;;;;;4924820;29;20040;-70
2021/03/23 03:25:57;;;;;;;10.02;6.22;;;21.80;40.70;;;;;;4898408;29;20044;-69
2021/03/23 03:28:23;;;;;;;7.82;5.50;;;21.80;40.70;;;;;;4915821;29;20024;-69
2021/03/23 03:30:49;;;;;;;7.22;5.60;;;21.80;40.70;;;;;;4898871;29;20024;-69
2021/03/23 03:33:19;;;;;;;7.75;5.90;;;21.80;40.70;;;;;;4899050;29;20032;-70
2021/03/23 03:35:46;;;;;;;6.78;5.10;;;21.80;40.70;;;;;;4915661;29;20032;-70
2021/03/23 03:38:14;;;;;;;5.30;4.80;;;21.70;40.60;;;;;;4898014;29;20032;-69
2021/03/23 03:40:44;;;;;;;7.38;5.47;;;21.70;40.60;;;;;;4898481;29;20115;-70
2021/03/23 03:43:12;;;;;;;6.55;5.10;;;21.70;40.60;;;;;;4899176;29;20119;-70
2021/03/23 03:45:39;;;;;;;6.22;5.20;;;21.70;40.60;;;;;;4883773;29;20546;-70
2021/03/23 03:48:06;;;;;;;7.88;5.75;;;21.80;40.60;;;;;;4916100;29;20037;-70
2021/03/23 03:50:32;;;;;;;7.35;4.85;;;21.70;40.60;;;;;;4883679;29;20028;-69
2021/03/23 03:52:58;;;;;;;8.23;4.85;;;21.70;40.60;;;;;;4916195;29;20042;-70
2021/03/23 03:55:29;;;;;;;9.35;5.38;;;21.70;40.60;;;;;;4883655;29;20029;-70
2021/03/23 03:57:55;;;;;;;7.18;5.07;;;21.70;40.60;;;;;;4897964;29;20032;-70
2021/03/23 04:00:23;;;;;;;6.78;4.63;;;21.70;40.60;;;;;;4915571;29;20028;-70
2021/03/23 04:02:50;;;;;;;6.47;4.75;;;21.70;40.60;;;;;;4898875;29;20032;-70
2021/03/23 04:05:29;;;;;;;5.85;5.10;;;21.70;40.50;;;;;;4915746;29;20522;-70
2021/03/23 04:07:56;;;;;;;6.93;4.75;;;21.70;40.50;;;;;;4915842;29;20042;-70
2021/03/23 04:10:23;;;;;;;6.18;4.75;;;21.70;40.50;;;;;;4883481;29;20036;-70
2021/03/23 04:12:49;;;;;;;5.45;4.32;;;21.70;40.50;;;;;;4899148;29;20048;-70
2021/03/23 04:15:24;;;;;;;5.85;4.47;;;21.70;40.50;;;;;;4883222;29;20471;-70
2021/03/23 04:17:51;;;;;;;10.35;5.10;;;21.70;40.50;;;;;;4916960;29;20027;-70
2021/03/23 04:20:18;;;;;;;5.75;4.45;;;21.70;40.70;;;;;;4902270;29;20028;-70
2021/03/23 04:22:45;;;;;;;5.53;4.80;;;21.70;40.50;;;;;;4902623;29;20459;-70
2021/03/23 04:25:13;;;;;;;5.07;4.10;;;21.60;40.40;;;;;;4919657;29;20079;-70
2021/03/23 04:27:39;;;;;;;6.13;3.95;;;21.60;40.40;;;;;;4902253;29;20021;-70
2021/03/23 04:30:07;;;;;;;7.10;4.55;;;21.60;40.40;;;;;;4902732;29;20033;-70
2021/03/23 04:32:33;;;;;;;6.00;4.75;;;21.70;40.40;;;;;;4919528;29;20025;-69
2021/03/23 04:35:00;;;;;;;7.22;4.80;;;21.60;40.40;;;;;;4919203;29;20360;-70
2021/03/23 04:37:26;;;;;;;4.85;4.22;;;21.60;40.40;;;;;;4919706;29;20535;-70
2021/03/23 04:39:52;;;;;;;5.60;3.75;;;21.60;40.40;;;;;;4919025;29;20039;-70
2021/03/23 04:42:18;;;;;;;6.03;4.25;;;21.60;40.30;;;;;;4902215;29;20039;-70
2021/03/23 04:44:44;;;;;;;8.10;4.43;;;21.60;40.30;;;;;;4902265;29;20032;-70
2021/03/23 04:47:10;;;;;;;6.50;4.40;;;21.60;40.30;;;;;;4919201;29;20063;-70
2021/03/23 04:49:36;;;;;;;5.97;3.97;;;21.60;40.30;;;;;;4885821;29;20032;-70
2021/03/23 04:52:02;;;;;;;7.53;4.32;;;21.60;40.30;;;;;;4918324;29;20032;-69
2021/03/23 04:54:29;;;;;;;5.63;4.18;;;21.50;40.30;;;;;;4918364;29;20387;-70
2021/03/23 04:56:55;;;;;;;7.03;4.72;;;21.60;40.30;;;;;;4923544;29;20035;-69
2021/03/23 04:59:22;;;;;;;4.70;3.80;;;21.60;40.30;;;;;;4910282;29;20427;-70
2021/03/23 05:01:48;;;;;;;7.70;5.05;;;21.50;40.30;;;;;;4885535;29;20483;-70
2021/03/23 05:04:16;;;;;;;6.75;3.95;;;21.50;40.20;;;;;;4917387;29;20024;-70
2021/03/23 05:06:42;;;;;;;8.25;4.88;;;21.50;40.20;;;;;;4901098;29;20024;-70
2021/03/23 05:09:09;;;;;;;8.85;4.57;;;21.50;40.20;;;;;;4901491;29;20036;-70
2021/03/23 05:11:36;;;;;;;9.90;5.35;;;21.50;40.20;;;;;;4901512;29;20032;-69
2021/03/23 05:14:04;;;;;;;6.00;4.55;;;21.50;40.20;;;;;;4901055;29;20063;-70
2021/03/23 05:16:30;;;;;;;7.38;4.53;;;21.50;40.20;;;;;;4884722;29;20071;-70
2021/03/23 05:18:57;;;;;;;5.82;4.13;;;21.50;40.20;;;;;;4900569;29;20423;-70
2021/03/23 05:21:23;;;;;;;5.00;4.38;;;21.50;40.20;;;;;;4900238;29;20044;-70
2021/03/23 05:23:52;;;;;;;5.28;4.20;;;21.50;40.20;;;;;;4902774;29;20032;-70
2021/03/23 05:26:18;;;;;;;7.63;4.55;;;21.50;40.20;;;;;;4917040;29;20426;-70
2021/03/23 05:28:47;;;;;;;7.63;4.50;;;21.50;40.10;;;;;;4900282;29;20036;-70
2021/03/23 05:31:14;;;;;;;6.03;3.80;;;21.50;40.10;;;;;;4901525;29;20478;-70
2021/03/23 05:33:41;;;;;;;4.80;3.95;;;21.50;40.20;;;;;;4900725;29;20095;-69
2021/03/23 05:36:07;;;;;;;5.55;4.18;;;21.50;40.20;;;;;;4884986;29;20084;-70
2021/03/23 05:38:33;;;;;;;5.53;3.95;;;21.40;40.10;;;;;;4901277;29;20053;-70
2021/03/23 05:41:06;;;;;;;5.75;4.20;;;21.40;40.10;;;;;;4885114;29;20068;-70
2021/03/23 05:43:44;;;;;;;6.57;4.13;;;21.40;40.00;;;;;;4918470;29;20099;-70
2021/03/23 05:46:25;;;;;;;6.03;4.35;;;21.40;40.00;;;;;;4885072;29;20167;-70
2021/03/23 05:49:10;;;;;;;7.35;4.22;;;21.40;40.00;;;;;;4900791;29;20603;-70
2021/03/23 05:51:47;;;;;;;6.10;4.25;;;21.40;40.00;;;;;;4911804;29;20383;-70
2021/03/23 05:54:38;;;;;;;9.65;4.32;;;21.40;39.90;;;;;;4896239;29;20028;-70
2021/03/23 05:57:27;;;;;;;8.88;4.55;;;21.40;39.90;;;;;;4906060;29;20493;-70
2021/03/23 06:00:14;;;;;;;7.82;4.40;;;21.40;39.90;;;;;;4899702;29;20043;-70
2021/03/23 06:02:50;;;;;;;4.80;3.80;;;21.40;39.80;;;;;;4900169;29;20032;-69
2021/03/23 06:06:00;;;;;;;5.82;4.10;;;21.40;39.80;;;;;;4918052;29;20115;-71
2021/03/23 06:08:37;;;;;;;5.75;4.18;;;21.30;39.80;;;;;;4889732;29;20107;-65
2021/03/23 06:11:07;;;;;;;6.03;4.00;;;21.40;39.80;;;;;;4884771;29;20028;-64
2021/03/23 06:13:48;;;;;;;7.60;3.92;;;21.40;39.90;;;;;;4884301;29;20068;-65
2021/03/23 06:16:33;;;;;;;4.32;3.45;;;21.30;39.80;;;;;;4883712;29;20044;-64
2021/03/23 06:19:17;;;;;;;5.63;3.60;;;21.30;39.80;;;;;;4896124;29;20036;-65
2021/03/23 06:21:45;;;;;;;7.18;4.05;;;21.30;39.90;;;;;;4935622;29;20048;-64
2021/03/23 06:24:33;;;;;;;6.25;3.92;;;21.30;39.80;;;;;;4935504;29;20039;-64
2021/03/23 06:27:19;;;;;;;6.38;3.40;;;21.30;39.80;;;;;;4902906;29;20039;-64
2021/03/23 06:30:13;;;;;;;5.43;3.30;;;21.30;39.80;;;;;;4901974;29;20032;-65
2021/03/23 06:32:50;;;;;;;4.35;3.17;;;21.30;39.80;;;;;;4880672;29;20055;-64
2021/03/23 06:35:33;;;;;;;4.10;2.97;;;21.20;39.60;;;;;;4880699;29;20036;-64
2021/03/23 06:38:01;;;;;;;5.10;3.15;;;21.20;39.70;;;;;;4902642;29;20059;-64
2021/03/23 06:40:30;;;;;;;5.68;3.30;;;21.20;39.70;;;;;;4934876;29;20074;-64
2021/03/23 06:43:13;;;;;;;6.65;3.97;;;21.20;39.70;;;;;;4912458;29;20126;-64
2021/03/23 06:45:40;;;;;;;5.18;3.40;;;21.20;39.80;;;;;;4896374;29;20032;-65
2021/03/23 06:48:33;;;;;;;6.80;3.83;;;21.20;39.70;;;;;;4885667;29;20036;-65
2021/03/23 06:51:19;;;;;;;7.82;4.07;;;21.20;39.70;;;;;;4914292;29;20044;-65
2021/03/23 06:53:45;;;;;;;5.75;3.33;;;21.20;39.60;;;;;;4883161;29;20083;-65
2021/03/23 06:56:16;;;;;;;6.75;3.78;;;21.20;39.60;;;;;;4865228;29;20487;-65
2021/03/23 06:58:43;;;;;;;9.10;4.15;;;21.20;39.60;;;;;;4883080;29;20364;-65
2021/03/23 07:01:35;;;;;;;7.22;4.00;;;21.20;39.60;;;;;;4894786;29;20024;-65
2021/03/23 07:04:15;;;;;;;7.35;4.18;;;21.20;39.50;;;;;;4882063;29;20131;-65
2021/03/23 07:06:41;;;;;;;8.65;4.97;;;21.20;39.50;;;;;;4891703;29;20183;-65
2021/03/23 07:09:21;;;;;;;6.47;3.78;;;21.20;39.50;;;;;;4899695;29;20028;-65
2021/03/23 07:12:18;;;;;;;5.65;3.90;;;21.20;39.40;;;;;;4898737;29;20055;-65
2021/03/23 07:14:47;;;;;;;5.00;3.58;;;21.20;39.50;;;;;;4826865;29;20119;-64
2021/03/23 07:17:24;;;;;;;6.10;3.80;;;21.30;39.40;;;;;;4857103;29;20050;-65
2021/03/23 07:19:53;;;;;;;7.20;4.18;;;21.30;39.40;;;;;;4831520;29;20504;-64
2021/03/23 07:22:22;;;;;;;7.43;4.00;;;21.30;39.30;;;;;;4857229;29;20085;-65
2021/03/23 07:24:51;;;;;;;7.75;3.85;;;21.30;39.20;;;;;;4857335;29;20076;-65
2021/03/23 07:27:20;;;;;;;4.37;3.43;;;21.30;39.20;;;;;;4843553;29;20041;-66
2021/03/23 07:29:47;;;;;;;8.32;4.95;;;21.30;39.20;;;;;;4856732;29;20554;-66
2021/03/23 07:32:35;;;;;;;10.10;6.07;;;21.40;39.30;;;;;;4856601;29;20050;-69
2021/03/23 07:35:24;;;;;;;8.63;5.57;;;21.40;39.30;;;;;;4841200;29;20045;-70
2021/03/23 07:37:58;;;;;;;8.32;6.55;;;21.40;39.20;;;;;;4856811;29;20054;-69
2021/03/23 07:40:42;;;;;;;8.60;7.40;;;21.50;39.20;;;;;;4841274;29;20544;-69
2021/03/23 07:43:31;;;;;;;14.10;11.93;;;21.40;39.10;;;;;;4856362;29;20030;-69
2021/03/23 07:46:09;;;;;;;23.33;17.80;;;21.50;39.00;;;;;;4856577;29;20037;-69
2021/03/23 07:49:24;;;;;;;28.83;23.90;;;21.50;38.70;;;;;;4842115;29;20050;-69
2021/03/23 07:51:59;;;;;;;29.05;22.15;;;21.50;39.10;;;;;;4858623;29;20100;-69
2021/03/23 07:54:37;;;;;;;24.98;21.58;;;21.60;38.80;;;;;;4881945;29;20108;-69
2021/03/23 07:57:27;;;;;;;26.88;22.15;;;21.60;38.70;;;;;;4881630;29;20531;-69
2021/03/23 08:00:09;;;;;;;553.78;495.40;;;21.60;38.60;;;;;;4881730;29;20394;-62
2021/03/23 08:03:33;;;;;;;299.08;259.60;;;21.60;37.90;;;;;;4897351;29;20188;-68
2021/03/23 08:06:30;;;;;;;52.25;42.50;;;21.50;38.10;;;;;;4795684;29;20078;-76
2021/03/23 08:09:24;;;;;;;39.30;32.45;;;21.60;37.70;;;;;;4787448;29;20153;-72
2021/03/23 08:12:13;;;;;;;51.50;45.92;;;21.60;37.70;;;;;;4804421;29;20049;-72
2021/03/23 08:15:10;;;;;;;43.72;33.80;;;21.60;38.40;;;;;;4797431;29;20139;-65
2021/03/23 08:17:56;;;;;;;43.85;31.70;;;21.60;37.30;;;;;;4790764;29;20133;-70
2021/03/23 08:20:31;;;;;;;69.40;58.00;;;21.60;37.30;;;;;;4789853;29;20054;-74
2021/03/23 08:23:03;;;;;;;96.72;83.75;;;21.60;37.10;;;;;;4804367;29;20051;-69
2021/03/23 08:25:49;;;;;;;69.13;57.50;;;21.60;36.90;;;;;;4789313;29;20039;-67
2021/03/23 08:28:20;;;;;;;46.13;39.70;;;21.60;36.90;;;;;;4804958;29;20051;-68
2021/03/23 08:30:55;;;;;;;66.32;57.90;;;21.60;36.80;;;;;;4814180;29;20141;-69
2021/03/23 08:33:38;;;;;;;93.38;83.22;;;21.60;36.60;;;;;;4817261;29;20043;-67
2021/03/23 08:36:37;;;;;;;49.08;40.58;;;21.60;36.70;;;;;;4819234;29;20046;-70
2021/03/23 08:39:31;;;;;;;35.53;27.38;;;21.50;36.60;;;;;;4804839;29;20039;-69
2021/03/23 08:42:10;;;;;;;28.70;19.40;;;21.60;36.80;;;;;;4830785;29;20132;-70
2021/03/23 08:44:41;;;;;;;21.13;15.23;;;21.60;36.60;;;;;;4882543;29;20242;-70
2021/03/23 08:47:27;;;;;;;17.55;11.85;;;21.60;36.60;;;;;;4881904;29;20398;-69
2021/03/23 08:49:56;;;;;;;19.75;12.00;;;21.60;36.60;;;;;;4898751;29;20122;-69
2021/03/23 08:52:31;;;;;;;19.60;11.82;;;21.60;36.70;;;;;;4874528;29;20034;-70
2021/03/23 08:54:58;;;;;;;15.43;8.95;;;21.60;36.80;;;;;;4900274;29;20064;-70
2021/03/23 08:57:44;;;;;;;14.10;9.23;;;21.60;37.20;;;;;;4900663;29;20123;-70
2021/03/23 09:00:35;;;;;;;36.88;30.40;;;21.60;37.10;;;;;;4900117;29;20044;-68
2021/03/23 09:03:21;;;;;;;32.60;25.73;;;21.60;36.90;;;;;;4890895;29;20479;-69
2021/03/23 09:05:50;;;;;;;25.92;20.60;;;21.70;37.20;;;;;;4884692;29;20040;-69
2021/03/23 09:08:31;;;;;;;20.00;16.13;;;21.50;36.90;;;;;;4915771;29;20059;-69
2021/03/23 09:11:09;;;;;;;;;;;21.50;37.10;;;;;;4900689;29;20086;-69
2021/03/23 09:13:35;;;;;;;19.23;13.73;;;21.50;37.50;;;;;;4900100;29;19922;-69
2021/03/23 09:16:11;;;;;;;15.73;11.73;;;21.60;37.30;;;;;;4900081;29;20048;-68
2021/03/23 09:19:04;;;;;;;16.80;11.45;;;21.60;37.20;;;;;;4917028;29;20028;-68
2021/03/23 09:21:59;;;;;;;15.35;9.25;;;21.60;37.40;;;;;;4916777;29;20035;-68
2021/03/23 09:24:31;;;;;;;18.10;9.15;;;21.60;37.50;;;;;;4884653;29;20119;-69
2021/03/23 09:26:57;;;;;;;12.38;9.30;;;21.60;37.40;;;;;;4900031;29;20048;-69
2021/03/23 09:29:43;;;;;;;12.35;7.70;;;21.70;37.50;;;;;;4899910;29;20047;-69
2021/03/23 09:32:13;;;;;;;12.45;7.68;;;21.70;37.20;;;;;;4899713;29;20110;-68
2021/03/23 09:35:02;;;;;;;14.25;6.85;;;21.80;37.30;;;;;;4916748;29;20032;-68
2021/03/23 09:38:20;;;;;;;10.80;6.13;;;21.80;37.20;;;;;;4883947;29;20059;-59
2021/03/23 09:41:04;;;;;;;9.95;5.90;;;21.90;36.90;;;;;;4916408;29;20028;-59
2021/03/23 09:43:37;;;;;;;13.23;5.25;;;22.00;36.50;;;;;;4899384;29;20032;-60
2021/03/23 09:46:13;;;;;;;14.43;5.70;;;22.00;36.40;;;;;;4916324;29;20387;-59
2021/03/23 09:49:33;;;;;;;13.10;4.22;;;22.10;36.40;;;;;;4899056;29;20039;-60
2021/03/23 09:52:03;;;;;;;8.73;5.05;;;22.10;36.40;;;;;;4842511;29;20042;-61
2021/03/23 09:54:34;;;;;;;9.10;4.67;;;22.20;36.10;;;;;;4842638;29;20041;-60
2021/03/23 09:57:13;;;;;;;9.15;3.58;;;22.20;36.20;;;;;;4857455;29;20397;-60
2021/03/23 09:59:55;;;;;;;7.15;4.60;;;22.30;36.30;;;;;;4857708;29;20065;-60
2021/03/23 10:02:29;;;;;;;9.02;3.72;;;22.30;36.20;;;;;;4843088;29;20065;-60
2021/03/23 10:04:56;;;;;;;174.55;152.18;;;22.40;36.20;;;;;;4823344;29;20037;-53
2021/03/23 10:07:39;;;;;;;86.25;75.60;;;22.40;36.30;;;;;;4838606;29;20045;-54
2021/03/23 10:10:13;;;;;;;82.53;73.53;;;22.40;36.20;;;;;;4857386;29;20127;-55
2021/03/23 10:12:40;;;;;;;51.47;43.22;;;22.50;36.30;;;;;;4850020;29;20373;-55
2021/03/23 10:15:32;;;;;;;35.75;30.20;;;22.60;37.10;;;;;;4856153;29;20061;-55
2021/03/23 10:18:39;;;;;;;41.75;37.15;;;22.60;36.60;;;;;;4857308;29;20036;-54
2021/03/23 10:21:11;;;;;;;35.85;28.15;;;22.70;36.70;;;;;;4845267;29;20048;-54
2021/03/23 10:23:55;;;;;;;15.60;12.07;;;22.80;36.70;;;;;;4893320;29;20428;-55
2021/03/23 10:26:24;;;;;;;12.65;10.15;;;22.80;36.90;;;;;;4917465;29;20036;-53
2021/03/23 10:28:54;;;;;;;10.80;9.25;;;23.00;36.90;;;;;;4917605;29;20032;-53
2021/03/23 10:31:38;;;;;;;11.25;6.88;;;23.00;36.90;;;;;;4934912;29;20046;-53
2021/03/23 10:34:23;;;;;;;9.75;6.40;;;23.00;37.20;;;;;;4929043;29;20059;-54
2021/03/23 10:37:07;;;;;;;9.75;5.78;;;23.20;37.30;;;;;;4924081;29;20039;-54
2021/03/23 10:39:42;;;;;;;9.98;4.60;;;23.20;37.30;;;;;;4898593;29;20114;-60
2021/03/23 10:42:23;;;;;;;14.88;4.68;;;23.30;37.70;;;;;;4910654;29;20047;-60
2021/03/23 10:44:51;;;;;;;10.35;4.18;;;23.40;37.80;;;;;;4924551;29;20032;-60
2021/03/23 10:47:31;;;;;;;7.40;3.72;;;23.40;37.70;;;;;;4897258;29;20032;-52
2021/03/23 10:50:15;;;;;;;5.88;4.10;;;23.50;38.10;;;;;;4898375;29;20043;-52
2021/03/23 10:52:41;;;;;;;6.25;3.20;;;23.50;38.00;;;;;;4898465;29;20040;-54
2021/03/23 10:55:34;;;;;;;4.10;2.97;;;23.60;37.90;;;;;;4930238;29;20389;-51
2021/03/23 10:58:43;;;;;;;4.78;2.60;;;23.70;38.50;;;;;;4903959;29;20067;-52
2021/03/23 11:01:19;;;;;;;3.67;2.33;;;23.70;38.90;;;;;;4921451;29;20091;-52
2021/03/23 11:03:47;;;;;;;7.68;3.03;;;23.80;39.20;;;;;;4933680;29;20040;-52
2021/03/23 11:06:27;;;;;;;6.68;3.00;;;23.90;39.20;;;;;;4932517;29;20478;-52
2021/03/23 11:08:53;;;;;;;6.43;2.95;;;23.90;39.30;;;;;;4925748;29;20028;-52
2021/03/23 11:11:19;;;;;;;3.63;2.33;;;24.00;39.40;;;;;;4933985;29;20035;-52
2021/03/23 11:13:47;;;;;;;4.78;2.70;;;24.00;39.50;;;;;;4931078;29;20048;-52
2021/03/23 11:16:15;;;;;;;8.20;2.92;;;24.10;39.70;;;;;;4921937;29;20453;-54
2021/03/23 11:18:44;;;;;;;8.02;2.88;;;24.10;40.00;;;;;;4915003;29;20475;-52
2021/03/23 11:21:14;;;;;;;6.67;2.60;;;24.20;40.30;;;;;;4897995;29;20036;-51
2021/03/23 11:23:43;;;;;;;4.55;2.50;;;24.30;40.50;;;;;;4915008;29;20531;-51
2021/03/23 11:26:12;;;;;;;6.03;2.80;;;24.30;40.60;;;;;;4925086;29;20032;-52
2021/03/23 11:28:39;;;;;;;6.03;3.28;;;24.40;40.80;;;;;;4915362;29;20036;-52
2021/03/23 11:31:07;;;;;;;4.15;2.97;;;24.50;40.90;;;;;;4914905;29;20024;-52
2021/03/23 11:33:34;;;;;;;6.93;3.10;;;24.60;41.20;;;;;;4914915;29;20028;-52
2021/03/23 11:36:01;;;;;;;7.03;2.42;;;24.60;41.50;;;;;;4901981;29;20059;-52
2021/03/23 11:38:28;;;;;;;7.43;2.85;;;24.60;41.70;;;;;;4898037;29;20602;-52
2021/03/23 11:40:56;;;;;;;4.22;2.35;;;24.70;41.80;;;;;;4915010;29;20028;-52
2021/03/23 11:43:36;;;;;;;4.78;3.17;;;24.70;41.90;;;;;;4916656;29;20076;-52
2021/03/23 11:46:11;;;;;;;5.43;2.67;;;24.70;42.00;;;;;;4915096;29;20387;-52
2021/03/23 11:48:42;;;;;;;8.32;3.25;;;24.80;41.90;;;;;;4926285;29;20044;-52
2021/03/23 11:51:09;;;;;;;4.80;2.55;;;24.80;41.80;;;;;;4915001;29;20446;-52
2021/03/23 11:53:35;;;;;;;5.50;2.92;;;24.90;42.10;;;;;;4915527;29;20150;-52
2021/03/23 11:56:01;;;;;;;5.40;3.05;;;24.90;42.20;;;;;;4915866;29;20032;-53
2021/03/23 11:58:28;;;;;;;9.07;3.70;;;24.90;42.30;;;;;;4915110;29;20052;-53
2021/03/23 12:00:54;;;;;;;9.48;3.20;;;25.00;42.40;;;;;;4914671;29;20096;-54
2021/03/23 12:03:20;;;;;;;9.60;2.80;;;25.00;42.40;;;;;;4914419;29;20024;-52
2021/03/23 12:05:47;;;;;;;4.72;2.88;;;25.00;42.20;;;;;;4914520;29;20443;-52
2021/03/23 12:08:33;;;;;;;6.97;3.17;;;25.10;42.10;;;;;;4919165;29;20032;-52
2021/03/23 12:11:24;;;;;;;3.95;2.97;;;25.10;42.00;;;;;;4897546;29;20103;-53
2021/03/23 12:14:18;;;;;;;4.85;2.80;;;25.20;41.90;;;;;;4930082;29;20048;-52
2021/03/23 12:17:09;;;;;;;3.15;2.33;;;25.30;41.70;;;;;;4916489;29;20071;-53
2021/03/23 12:19:42;;;;;;;8.15;3.10;;;25.40;41.70;;;;;;4933464;29;20024;-52
2021/03/23 12:22:11;;;;;;;8.32;3.15;;;25.50;41.60;;;;;;4914055;29;20478;-53
2021/03/23 12:24:41;;;;;;;5.65;2.88;;;25.50;41.40;;;;;;4932709;29;20036;-52
2021/03/23 12:27:08;;;;;;;5.95;2.65;;;25.60;41.40;;;;;;4914145;29;20444;-53
2021/03/23 12:29:38;;;;;;;6.60;3.17;;;25.60;41.20;;;;;;4930849;29;20030;-52
2021/03/23 12:32:06;;;;;;;4.57;2.53;;;25.70;41.20;;;;;;4933544;29;20059;-53
2021/03/23 12:34:32;;;;;;;3.85;2.20;;;25.70;41.10;;;;;;4929873;29;20055;-53
2021/03/23 12:36:59;;;;;;;5.40;2.60;;;25.80;41.00;;;;;;4931152;29;20031;-52
2021/03/23 12:39:25;;;;;;;6.65;3.13;;;25.90;41.00;;;;;;4919164;29;20474;-60
2021/03/23 12:41:51;;;;;;;10.45;3.83;;;25.90;41.40;;;;;;4919529;29;20038;-61
2021/03/23 12:44:19;;;;;;;10.05;3.53;;;26.00;41.90;;;;;;4935122;29;20031;-60
2021/03/23 12:46:46;;;;;;;12.02;3.53;;;26.10;41.60;;;;;;4897788;29;20491;-60
2021/03/23 12:49:12;;;;;;;11.77;3.78;;;26.00;41.50;;;;;;4917638;29;20027;-60
2021/03/23 12:51:51;;;;;;;10.10;3.67;;;26.00;41.60;;;;;;4936690;29;20110;-61
2021/03/23 12:54:21;;;;;;;9.50;3.23;;;25.90;41.60;;;;;;4934020;29;21035;-61
2021/03/23 12:56:48;;;;;;;8.68;3.25;;;25.90;41.80;;;;;;4899777;29;20036;-61
2021/03/23 12:59:26;;;;;;;6.18;3.00;;;25.90;41.90;;;;;;4916867;29;20079;-61
2021/03/23 13:01:52;;;;;;;5.68;2.83;;;25.80;42.10;;;;;;4917336;29;20079;-61
2021/03/23 13:04:21;;;;;;;7.60;3.20;;;25.80;42.20;;;;;;4917022;29;20036;-61
2021/03/23 13:06:47;;;;;;;7.90;3.08;;;25.70;42.40;;;;;;4884482;29;20044;-61
2021/03/23 13:09:14;;;;;;;5.95;2.88;;;25.70;42.40;;;;;;4899941;29;20398;-61
2021/03/23 13:11:47;;;;;;;4.13;2.70;;;25.70;42.60;;;;;;4916685;29;20103;-60